sensor_id;sensor_type;location;lat;lon;timestamp;P1;durP1;ratioP1;P2;durP2;ratioP2
23336;SDS011;11840;45.414;12.372;2024-03-22T00:00:55;69.40;;;44.15;;
23336;SDS011;11840;45.414;12.372;2024-03-22T00:03:21;68.50;;;44.95;;
23336;SDS011;11840;45.414;12.372;2024-03-22T00:05:47;70.72;;;44.92;;
23336;SDS011;11840;45.414;12.372;2024-03-22T00:08:14;73.78;;;45.88;;
23336;SDS011;11840;45.414;12.372;2024-03-22T00:10:40;68.55;;;43.88;;
23336;SDS011;11840;45.414;12.372;2024-03-22T00:13:06;67.85;;;43.83;;
23336;SDS011;11840;45.414;12.372;2024-03-22T00:15:31;72.40;;;43.88;;
23336;SDS011;11840;45.414;12.372;2024-03-22T00:17:58;66.70;;;43.00;;
23336;SDS011;11840;45.414;12.372;2024-03-22T00:20:24;69.18;;;45.03;;
23336;SDS011;11840;45.414;12.372;2024-03-22T00:22:50;68.93;;;43.33;;
23336;SDS011;11840;45.414;12.372;2024-03-22T00:25:16;65.65;;;42.83;;
23336;SDS011;11840;45.414;12.372;2024-03-22T00:27:42;65.60;;;41.00;;
23336;SDS011;11840;45.414;12.372;2024-03-22T00:30:08;68.40;;;42.70;;
23336;SDS011;11840;45.414;12.372;2024-03-22T00:32:34;68.85;;;44.53;;
23336;SDS011;11840;45.414;12.372;2024-03-22T00:35:00;65.22;;;43.40;;
23336;SDS011;11840;45.414;12.372;2024-03-22T00:37:27;66.70;;;44.67;;
23336;SDS011;11840;45.414;12.372;2024-03-22T00:39:53;71.50;;;44.63;;
23336;SDS011;11840;45.414;12.372;2024-03-22T00:42:19;72.03;;;45.67;;
23336;SDS011;11840;45.414;12.372;2024-03-22T00:44:44;72.35;;;46.78;;
23336;SDS011;11840;45.414;12.372;2024-03-22T00:47:10;70.05;;;45.30;;
23336;SDS011;11840;45.414;12.372;2024-03-22T00:49:36;68.25;;;43.78;;
23336;SDS011;11840;45.414;12.372;2024-03-22T00:52:02;70.10;;;45.35;;
23336;SDS011;11840;45.414;12.372;2024-03-22T00:54:29;71.05;;;45.08;;
23336;SDS011;11840;45.414;12.372;2024-03-22T00:56:55;65.63;;;43.72;;
23336;SDS011;11840;45.414;12.372;2024-03-22T00:59:22;71.60;;;45.00;;
23336;SDS011;11840;45.414;12.372;2024-03-22T01:01:48;64.28;;;43.42;;
23336;SDS011;11840;45.414;12.372;2024-03-22T01:04:14;67.85;;;43.50;;
23336;SDS011;11840;45.414;12.372;2024-03-22T01:06:40;67.00;;;44.53;;
23336;SDS011;11840;45.414;12.372;2024-03-22T01:09:06;62.50;;;42.75;;
23336;SDS011;11840;45.414;12.372;2024-03-22T01:11:32;67.95;;;43.53;;
23336;SDS011;11840;45.414;12.372;2024-03-22T01:13:58;71.50;;;45.35;;
23336;SDS011;11840;45.414;12.372;2024-03-22T01:16:24;70.68;;;45.67;;
23336;SDS011;11840;45.414;12.372;2024-03-22T01:18:50;71.30;;;44.75;;
23336;SDS011;11840;45.414;12.372;2024-03-22T01:21:16;65.63;;;43.40;;
23336;SDS011;11840;45.414;12.372;2024-03-22T01:23:42;64.82;;;43.22;;
23336;SDS011;11840;45.414;12.372;2024-03-22T01:26:08;73.30;;;46.72;;
23336;SDS011;11840;45.414;12.372;2024-03-22T01:28:35;68.30;;;44.65;;
23336;SDS011;11840;45.414;12.372;2024-03-22T01:31:01;71.30;;;47.67;;
23336;SDS011;11840;45.414;12.372;2024-03-22T01:33:27;72.32;;;45.67;;
23336;SDS011;11840;45.414;12.372;2024-03-22T01:35:53;72.63;;;47.75;;
23336;SDS011;11840;45.414;12.372;2024-03-22T01:38:19;71.75;;;47.30;;
23336;SDS011;11840;45.414;12.372;2024-03-22T07:09:09;32.42;;;20.80;;
23336;SDS011;11840;45.414;12.372;2024-03-22T07:11:35;43.53;;;29.70;;
23336;SDS011;11840;45.414;12.372;2024-03-22T07:14:02;41.38;;;28.50;;
23336;SDS011;11840;45.414;12.372;2024-03-22T07:16:27;45.83;;;29.85;;
23336;SDS011;11840;45.414;12.372;2024-03-22T07:18:54;43.17;;;28.75;;
23336;SDS011;11840;45.414;12.372;2024-03-22T07:21:20;43.03;;;27.98;;
23336;SDS011;11840;45.414;12.372;2024-03-22T07:23:47;37.45;;;26.20;;
23336;SDS011;11840;45.414;12.372;2024-03-22T07:26:12;40.92;;;27.90;;
23336;SDS011;11840;45.414;12.372;2024-03-22T07:28:38;36.03;;;25.63;;
23336;SDS011;11840;45.414;12.372;2024-03-22T07:31:04;42.13;;;27.38;;
23336;SDS011;11840;45.414;12.372;2024-03-22T07:33:31;41.83;;;26.85;;
23336;SDS011;11840;45.414;12.372;2024-03-22T07:35:56;41.30;;;27.60;;
23336;SDS011;11840;45.414;12.372;2024-03-22T07:38:22;41.80;;;28.52;;
23336;SDS011;11840;45.414;12.372;2024-03-22T07:40:48;40.83;;;26.65;;
23336;SDS011;11840;45.414;12.372;2024-03-22T07:43:15;39.25;;;27.52;;
23336;SDS011;11840;45.414;12.372;2024-03-22T07:45:42;39.05;;;27.08;;
23336;SDS011;11840;45.414;12.372;2024-03-22T07:48:07;45.65;;;28.08;;
23336;SDS011;11840;45.414;12.372;2024-03-22T07:50:33;36.35;;;25.75;;
23336;SDS011;11840;45.414;12.372;2024-03-22T07:52:59;37.20;;;25.90;;
23336;SDS011;11840;45.414;12.372;2024-03-22T07:55:25;39.70;;;26.55;;
23336;SDS011;11840;45.414;12.372;2024-03-22T07:57:51;39.67;;;25.42;;
23336;SDS011;11840;45.414;12.372;2024-03-22T08:00:18;39.47;;;26.00;;
23336;SDS011;11840;45.414;12.372;2024-03-22T08:02:43;37.55;;;24.92;;
23336;SDS011;11840;45.414;12.372;2024-03-22T08:05:09;39.97;;;24.77;;
23336;SDS011;11840;45.414;12.372;2024-03-22T08:07:35;38.40;;;24.65;;
23336;SDS011;11840;45.414;12.372;2024-03-22T08:10:01;35.42;;;23.30;;
23336;SDS011;11840;45.414;12.372;2024-03-22T08:12:27;31.25;;;22.33;;
23336;SDS011;11840;45.414;12.372;2024-03-22T08:14:53;30.35;;;20.25;;
23336;SDS011;11840;45.414;12.372;2024-03-22T08:17:19;27.25;;;20.45;;
23336;SDS011;11840;45.414;12.372;2024-03-22T08:19:45;27.73;;;19.45;;
23336;SDS011;11840;45.414;12.372;2024-03-22T08:22:11;23.10;;;17.55;;
23336;SDS011;11840;45.414;12.372;2024-03-22T08:24:37;26.70;;;18.15;;
23336;SDS011;11840;45.414;12.372;2024-03-22T08:27:03;24.77;;;16.33;;
23336;SDS011;11840;45.414;12.372;2024-03-22T08:29:29;22.05;;;16.88;;
23336;SDS011;11840;45.414;12.372;2024-03-22T08:31:55;26.60;;;17.83;;
23336;SDS011;11840;45.414;12.372;2024-03-22T08:34:21;25.58;;;18.02;;
23336;SDS011;11840;45.414;12.372;2024-03-22T08:36:47;27.90;;;19.77;;
23336;SDS011;11840;45.414;12.372;2024-03-22T08:39:13;27.20;;;19.35;;
23336;SDS011;11840;45.414;12.372;2024-03-22T08:41:39;28.65;;;19.75;;
23336;SDS011;11840;45.414;12.372;2024-03-22T08:44:06;28.85;;;19.45;;
23336;SDS011;11840;45.414;12.372;2024-03-22T08:46:32;26.33;;;19.20;;
23336;SDS011;11840;45.414;12.372;2024-03-22T08:48:58;27.10;;;20.33;;
23336;SDS011;11840;45.414;12.372;2024-03-22T08:51:24;28.73;;;20.00;;
23336;SDS011;11840;45.414;12.372;2024-03-22T08:53:50;27.55;;;18.27;;
23336;SDS011;11840;45.414;12.372;2024-03-22T08:56:16;26.90;;;18.58;;
23336;SDS011;11840;45.414;12.372;2024-03-22T08:58:42;26.88;;;18.45;;
23336;SDS011;11840;45.414;12.372;2024-03-22T09:01:07;26.35;;;17.30;;
23336;SDS011;11840;45.414;12.372;2024-03-22T09:03:36;23.25;;;16.52;;
23336;SDS011;11840;45.414;12.372;2024-03-22T09:06:02;25.27;;;16.80;;
23336;SDS011;11840;45.414;12.372;2024-03-22T09:08:28;21.40;;;14.88;;
23336;SDS011;11840;45.414;12.372;2024-03-22T09:10:54;23.15;;;15.90;;
23336;SDS011;11840;45.414;12.372;2024-03-22T09:13:20;25.83;;;14.60;;
23336;SDS011;11840;45.414;12.372;2024-03-22T09:15:46;22.40;;;15.68;;
23336;SDS011;11840;45.414;12.372;2024-03-22T09:18:12;17.27;;;12.45;;
23336;SDS011;11840;45.414;12.372;2024-03-22T09:20:38;18.63;;;13.80;;
23336;SDS011;11840;45.414;12.372;2024-03-22T09:23:04;17.38;;;13.38;;
23336;SDS011;11840;45.414;12.372;2024-03-22T09:25:30;15.80;;;11.48;;
23336;SDS011;11840;45.414;12.372;2024-03-22T09:27:57;12.85;;;10.05;;
23336;SDS011;11840;45.414;12.372;2024-03-22T09:30:23;9.18;;;7.13;;
23336;SDS011;11840;45.414;12.372;2024-03-22T09:32:49;11.23;;;8.13;;
23336;SDS011;11840;45.414;12.372;2024-03-22T09:35:17;14.18;;;7.50;;
23336;SDS011;11840;45.414;12.372;2024-03-22T09:37:43;9.45;;;6.28;;
23336;SDS011;11840;45.414;12.372;2024-03-22T09:40:09;10.20;;;7.50;;
23336;SDS011;11840;45.414;12.372;2024-03-22T09:42:37;16.33;;;12.13;;
23336;SDS011;11840;45.414;12.372;2024-03-22T09:45:07;18.88;;;13.82;;
23336;SDS011;11840;45.414;12.372;2024-03-22T09:47:33;20.55;;;15.50;;
23336;SDS011;11840;45.414;12.372;2024-03-22T09:49:59;22.08;;;15.98;;
23336;SDS011;11840;45.414;12.372;2024-03-22T09:52:26;21.92;;;15.20;;
23336;SDS011;11840;45.414;12.372;2024-03-22T09:54:53;20.63;;;15.00;;
23336;SDS011;11840;45.414;12.372;2024-03-22T09:57:20;17.40;;;13.90;;
23336;SDS011;11840;45.414;12.372;2024-03-22T09:59:46;20.15;;;14.50;;
23336;SDS011;11840;45.414;12.372;2024-03-22T10:02:13;25.13;;;15.73;;
23336;SDS011;11840;45.414;12.372;2024-03-22T10:04:39;18.55;;;14.80;;
23336;SDS011;11840;45.414;12.372;2024-03-22T10:07:06;20.10;;;15.30;;
23336;SDS011;11840;45.414;12.372;2024-03-22T10:09:34;19.85;;;14.50;;
23336;SDS011;11840;45.414;12.372;2024-03-22T10:12:00;18.75;;;14.32;;
23336;SDS011;11840;45.414;12.372;2024-03-22T10:14:26;21.02;;;16.20;;
23336;SDS011;11840;45.414;12.372;2024-03-22T10:16:52;26.25;;;16.63;;
23336;SDS011;11840;45.414;12.372;2024-03-22T10:19:19;21.02;;;15.82;;
23336;SDS011;11840;45.414;12.372;2024-03-22T10:21:45;20.65;;;16.15;;
23336;SDS011;11840;45.414;12.372;2024-03-22T10:24:11;21.90;;;15.43;;
23336;SDS011;11840;45.414;12.372;2024-03-22T10:26:36;20.52;;;15.77;;
23336;SDS011;11840;45.414;12.372;2024-03-22T10:29:05;21.67;;;16.65;;
23336;SDS011;11840;45.414;12.372;2024-03-22T10:31:31;21.92;;;16.83;;
23336;SDS011;11840;45.414;12.372;2024-03-22T10:34:00;20.13;;;15.25;;
23336;SDS011;11840;45.414;12.372;2024-03-22T10:36:26;22.10;;;17.17;;
23336;SDS011;11840;45.414;12.372;2024-03-22T10:38:52;23.65;;;16.42;;
23336;SDS011;11840;45.414;12.372;2024-03-22T10:41:19;23.73;;;17.40;;
23336;SDS011;11840;45.414;12.372;2024-03-22T10:43:46;23.40;;;16.75;;
23336;SDS011;11840;45.414;12.372;2024-03-22T10:46:12;22.85;;;16.60;;
23336;SDS011;11840;45.414;12.372;2024-03-22T10:48:38;21.35;;;16.13;;
23336;SDS011;11840;45.414;12.372;2024-03-22T10:51:04;26.77;;;16.67;;
23336;SDS011;11840;45.414;12.372;2024-03-22T10:53:31;21.95;;;15.95;;
23336;SDS011;11840;45.414;12.372;2024-03-22T10:55:58;14.73;;;11.73;;
23336;SDS011;11840;45.414;12.372;2024-03-22T10:58:25;16.40;;;12.00;;
23336;SDS011;11840;45.414;12.372;2024-03-22T11:00:54;19.95;;;15.68;;
23336;SDS011;11840;45.414;12.372;2024-03-22T11:03:24;25.60;;;17.65;;
23336;SDS011;11840;45.414;12.372;2024-03-22T11:05:55;21.80;;;16.65;;
23336;SDS011;11840;45.414;12.372;2024-03-22T11:08:27;23.70;;;16.45;;
23336;SDS011;11840;45.414;12.372;2024-03-22T11:10:53;21.45;;;15.32;;
23336;SDS011;11840;45.414;12.372;2024-03-22T11:13:20;20.40;;;14.50;;
23336;SDS011;11840;45.414;12.372;2024-03-22T11:15:47;14.57;;;10.52;;
23336;SDS011;11840;45.414;12.372;2024-03-22T11:18:13;13.18;;;9.13;;
23336;SDS011;11840;45.414;12.372;2024-03-22T11:20:39;12.32;;;8.35;;
23336;SDS011;11840;45.414;12.372;2024-03-22T11:23:05;10.55;;;7.90;;
23336;SDS011;11840;45.414;12.372;2024-03-22T11:25:33;13.23;;;10.55;;
23336;SDS011;11840;45.414;12.372;2024-03-22T11:28:00;25.63;;;19.42;;
23336;SDS011;11840;45.414;12.372;2024-03-22T11:30:32;26.10;;;19.20;;
23336;SDS011;11840;45.414;12.372;2024-03-22T11:33:00;22.08;;;17.35;;
23336;SDS011;11840;45.414;12.372;2024-03-22T11:35:27;27.05;;;19.23;;
23336;SDS011;11840;45.414;12.372;2024-03-22T11:37:53;25.85;;;18.70;;
23336;SDS011;11840;45.414;12.372;2024-03-22T11:40:19;19.65;;;14.43;;
23336;SDS011;11840;45.414;12.372;2024-03-22T11:42:46;17.88;;;13.27;;
23336;SDS011;11840;45.414;12.372;2024-03-22T11:45:13;24.90;;;16.92;;
23336;SDS011;11840;45.414;12.372;2024-03-22T11:47:40;21.30;;;14.57;;
23336;SDS011;11840;45.414;12.372;2024-03-22T11:50:06;20.25;;;14.88;;
23336;SDS011;11840;45.414;12.372;2024-03-22T11:52:32;22.60;;;17.05;;
23336;SDS011;11840;45.414;12.372;2024-03-22T11:54:58;25.92;;;16.77;;
23336;SDS011;11840;45.414;12.372;2024-03-22T11:57:24;21.35;;;15.88;;
23336;SDS011;11840;45.414;12.372;2024-03-22T11:59:51;20.02;;;14.77;;
23336;SDS011;11840;45.414;12.372;2024-03-22T12:02:17;16.98;;;11.98;;
23336;SDS011;11840;45.414;12.372;2024-03-22T12:04:45;16.20;;;12.82;;
23336;SDS011;11840;45.414;12.372;2024-03-22T12:07:11;15.75;;;11.60;;
23336;SDS011;11840;45.414;12.372;2024-03-22T12:09:39;12.20;;;9.15;;
23336;SDS011;11840;45.414;12.372;2024-03-22T12:12:05;17.58;;;11.60;;
23336;SDS011;11840;45.414;12.372;2024-03-22T12:14:33;19.92;;;14.82;;
23336;SDS011;11840;45.414;12.372;2024-03-22T12:17:01;19.23;;;13.50;;
23336;SDS011;11840;45.414;12.372;2024-03-22T12:19:28;18.75;;;12.70;;
23336;SDS011;11840;45.414;12.372;2024-03-22T12:21:54;14.38;;;11.18;;
23336;SDS011;11840;45.414;12.372;2024-03-22T12:24:20;10.70;;;7.45;;
23336;SDS011;11840;45.414;12.372;2024-03-22T12:26:46;5.05;;;3.78;;
23336;SDS011;11840;45.414;12.372;2024-03-22T12:29:12;6.05;;;3.80;;
23336;SDS011;11840;45.414;12.372;2024-03-22T12:31:38;6.43;;;4.78;;
23336;SDS011;11840;45.414;12.372;2024-03-22T12:34:04;6.15;;;4.47;;
23336;SDS011;11840;45.414;12.372;2024-03-22T12:36:31;8.52;;;5.63;;
23336;SDS011;11840;45.414;12.372;2024-03-22T12:38:57;8.23;;;5.60;;
23336;SDS011;11840;45.414;12.372;2024-03-22T12:41:23;6.07;;;3.92;;
23336;SDS011;11840;45.414;12.372;2024-03-22T12:43:49;4.70;;;3.72;;
23336;SDS011;11840;45.414;12.372;2024-03-22T12:46:15;15.55;;;11.93;;
23336;SDS011;11840;45.414;12.372;2024-03-22T12:48:42;13.82;;;10.32;;
23336;SDS011;11840;45.414;12.372;2024-03-22T12:51:08;9.85;;;7.20;;
23336;SDS011;11840;45.414;12.372;2024-03-22T12:53:34;7.45;;;4.80;;
23336;SDS011;11840;45.414;12.372;2024-03-22T12:56:00;7.82;;;5.45;;
23336;SDS011;11840;45.414;12.372;2024-03-22T12:58:26;10.85;;;6.15;;
23336;SDS011;11840;45.414;12.372;2024-03-22T13:00:52;7.40;;;4.35;;
23336;SDS011;11840;45.414;12.372;2024-03-22T13:03:18;4.85;;;3.28;;
23336;SDS011;11840;45.414;12.372;2024-03-22T13:05:43;4.30;;;2.67;;
23336;SDS011;11840;45.414;12.372;2024-03-22T13:08:10;6.60;;;2.83;;
23336;SDS011;11840;45.414;12.372;2024-03-22T13:10:36;4.82;;;2.85;;
23336;SDS011;11840;45.414;12.372;2024-03-22T13:13:03;6.20;;;2.17;;
23336;SDS011;11840;45.414;12.372;2024-03-22T13:15:29;3.47;;;2.25;;
23336;SDS011;11840;45.414;12.372;2024-03-22T13:17:56;3.67;;;2.15;;
23336;SDS011;11840;45.414;12.372;2024-03-22T13:20:22;4.00;;;1.98;;
23336;SDS011;11840;45.414;12.372;2024-03-22T13:22:48;3.30;;;1.90;;
23336;SDS011;11840;45.414;12.372;2024-03-22T13:25:13;2.60;;;1.80;;
23336;SDS011;11840;45.414;12.372;2024-03-22T13:27:39;3.10;;;1.90;;
23336;SDS011;11840;45.414;12.372;2024-03-22T13:30:06;4.00;;;2.00;;
23336;SDS011;11840;45.414;12.372;2024-03-22T13:32:38;3.90;;;1.83;;
23336;SDS011;11840;45.414;12.372;2024-03-22T13:35:04;5.85;;;1.52;;
23336;SDS011;11840;45.414;12.372;2024-03-22T13:37:30;3.08;;;2.05;;
23336;SDS011;11840;45.414;12.372;2024-03-22T13:39:56;2.92;;;1.60;;
23336;SDS011;11840;45.414;12.372;2024-03-22T13:42:22;2.97;;;1.83;;
23336;SDS011;11840;45.414;12.372;2024-03-22T13:44:48;3.85;;;1.95;;
23336;SDS011;11840;45.414;12.372;2024-03-22T13:47:13;4.72;;;2.10;;
23336;SDS011;11840;45.414;12.372;2024-03-22T13:49:39;2.65;;;2.03;;
23336;SDS011;11840;45.414;12.372;2024-03-22T13:52:07;2.78;;;1.90;;
23336;SDS011;11840;45.414;12.372;2024-03-22T13:54:33;3.15;;;1.85;;
23336;SDS011;11840;45.414;12.372;2024-03-22T13:56:58;3.33;;;2.00;;
23336;SDS011;11840;45.414;12.372;2024-03-22T13:59:24;4.45;;;2.15;;
23336;SDS011;11840;45.414;12.372;2024-03-22T14:01:50;4.75;;;2.42;;
23336;SDS011;11840;45.414;12.372;2024-03-22T14:04:16;3.45;;;2.50;;
23336;SDS011;11840;45.414;12.372;2024-03-22T14:06:41;4.47;;;2.20;;
23336;SDS011;11840;45.414;12.372;2024-03-22T14:09:07;3.00;;;2.28;;
23336;SDS011;11840;45.414;12.372;2024-03-22T14:11:35;3.17;;;2.08;;
23336;SDS011;11840;45.414;12.372;2024-03-22T14:14:01;2.97;;;2.00;;
23336;SDS011;11840;45.414;12.372;2024-03-22T14:16:27;3.08;;;1.80;;
23336;SDS011;11840;45.414;12.372;2024-03-22T14:18:53;3.85;;;1.67;;
23336;SDS011;11840;45.414;12.372;2024-03-22T14:21:19;4.93;;;1.42;;
23336;SDS011;11840;45.414;12.372;2024-03-22T14:23:46;3.33;;;1.30;;
23336;SDS011;11840;45.414;12.372;2024-03-22T14:26:12;2.67;;;1.27;;
23336;SDS011;11840;45.414;12.372;2024-03-22T14:28:38;1.90;;;1.30;;
23336;SDS011;11840;45.414;12.372;2024-03-22T14:31:05;2.40;;;1.42;;
23336;SDS011;11840;45.414;12.372;2024-03-22T14:33:36;4.03;;;1.60;;
23336;SDS011;11840;45.414;12.372;2024-03-22T14:36:03;2.35;;;1.50;;
23336;SDS011;11840;45.414;12.372;2024-03-22T14:38:29;3.63;;;1.50;;
23336;SDS011;11840;45.414;12.372;2024-03-22T14:40:55;2.63;;;1.50;;
23336;SDS011;11840;45.414;12.372;2024-03-22T14:43:22;2.67;;;1.60;;
23336;SDS011;11840;45.414;12.372;2024-03-22T14:45:47;2.80;;;1.70;;
23336;SDS011;11840;45.414;12.372;2024-03-22T14:48:14;3.88;;;1.80;;
23336;SDS011;11840;45.414;12.372;2024-03-22T14:50:40;4.18;;;1.70;;
23336;SDS011;11840;45.414;12.372;2024-03-22T14:53:06;5.20;;;1.70;;
23336;SDS011;11840;45.414;12.372;2024-03-22T14:55:32;2.65;;;1.73;;
23336;SDS011;11840;45.414;12.372;2024-03-22T14:57:58;1.90;;;1.45;;
23336;SDS011;11840;45.414;12.372;2024-03-22T15:00:24;3.10;;;1.80;;
23336;SDS011;11840;45.414;12.372;2024-03-22T15:02:52;2.58;;;1.70;;
23336;SDS011;11840;45.414;12.372;2024-03-22T15:05:18;2.97;;;1.55;;
23336;SDS011;11840;45.414;12.372;2024-03-22T15:07:44;3.25;;;1.70;;
23336;SDS011;11840;45.414;12.372;2024-03-22T15:10:10;2.45;;;1.40;;
23336;SDS011;11840;45.414;12.372;2024-03-22T15:12:37;2.92;;;1.50;;
23336;SDS011;11840;45.414;12.372;2024-03-22T15:15:03;2.30;;;1.55;;
23336;SDS011;11840;45.414;12.372;2024-03-22T15:17:29;2.78;;;1.90;;
23336;SDS011;11840;45.414;12.372;2024-03-22T15:19:56;2.97;;;1.90;;
23336;SDS011;11840;45.414;12.372;2024-03-22T15:22:22;2.17;;;1.20;;
23336;SDS011;11840;45.414;12.372;2024-03-22T15:24:48;2.67;;;1.75;;
23336;SDS011;11840;45.414;12.372;2024-03-22T15:27:15;2.85;;;1.67;;
23336;SDS011;11840;45.414;12.372;2024-03-22T15:29:41;3.28;;;1.70;;
23336;SDS011;11840;45.414;12.372;2024-03-22T15:32:06;3.40;;;1.92;;
23336;SDS011;11840;45.414;12.372;2024-03-22T15:34:32;5.13;;;2.00;;
23336;SDS011;11840;45.414;12.372;2024-03-22T15:36:58;4.22;;;1.98;;
23336;SDS011;11840;45.414;12.372;2024-03-22T15:39:24;3.08;;;1.85;;
23336;SDS011;11840;45.414;12.372;2024-03-22T15:41:53;3.10;;;2.17;;
23336;SDS011;11840;45.414;12.372;2024-03-22T15:44:19;2.95;;;1.95;;
23336;SDS011;11840;45.414;12.372;2024-03-22T15:46:45;2.67;;;1.90;;
23336;SDS011;11840;45.414;12.372;2024-03-22T15:49:11;4.03;;;1.70;;
23336;SDS011;11840;45.414;12.372;2024-03-22T15:51:37;2.40;;;1.60;;
23336;SDS011;11840;45.414;12.372;2024-03-22T15:54:09;2.47;;;1.38;;
23336;SDS011;11840;45.414;12.372;2024-03-22T15:56:35;3.75;;;1.50;;
23336;SDS011;11840;45.414;12.372;2024-03-22T15:59:01;3.00;;;1.60;;
23336;SDS011;11840;45.414;12.372;2024-03-22T16:01:27;3.20;;;1.75;;
23336;SDS011;11840;45.414;12.372;2024-03-22T16:03:53;3.17;;;1.65;;
23336;SDS011;11840;45.414;12.372;2024-03-22T16:06:18;2.90;;;1.60;;
23336;SDS011;11840;45.414;12.372;2024-03-22T16:08:45;3.55;;;1.65;;
23336;SDS011;11840;45.414;12.372;2024-03-22T16:11:11;2.95;;;1.92;;
23336;SDS011;11840;45.414;12.372;2024-03-22T16:13:37;2.28;;;1.40;;
23336;SDS011;11840;45.414;12.372;2024-03-22T16:16:03;3.40;;;2.00;;
23336;SDS011;11840;45.414;12.372;2024-03-22T16:18:29;2.60;;;1.65;;
23336;SDS011;11840;45.414;12.372;2024-03-22T16:20:55;2.72;;;1.85;;
23336;SDS011;11840;45.414;12.372;2024-03-22T16:23:21;2.40;;;1.70;;
23336;SDS011;11840;45.414;12.372;2024-03-22T16:25:47;2.60;;;1.55;;
23336;SDS011;11840;45.414;12.372;2024-03-22T16:28:13;3.00;;;1.70;;
23336;SDS011;11840;45.414;12.372;2024-03-22T16:30:40;2.60;;;1.70;;
23336;SDS011;11840;45.414;12.372;2024-03-22T16:33:06;3.88;;;1.80;;
23336;SDS011;11840;45.414;12.372;2024-03-22T16:35:32;3.22;;;1.70;;
23336;SDS011;11840;45.414;12.372;2024-03-22T16:37:58;2.63;;;1.70;;
23336;SDS011;11840;45.414;12.372;2024-03-22T16:40:24;2.50;;;1.40;;
23336;SDS011;11840;45.414;12.372;2024-03-22T16:42:50;2.95;;;1.70;;
23336;SDS011;11840;45.414;12.372;2024-03-22T16:45:16;2.30;;;1.60;;
23336;SDS011;11840;45.414;12.372;2024-03-22T16:47:46;2.28;;;1.60;;
23336;SDS011;11840;45.414;12.372;2024-03-22T16:50:13;3.72;;;1.60;;
23336;SDS011;11840;45.414;12.372;2024-03-22T16:52:39;2.38;;;1.58;;
23336;SDS011;11840;45.414;12.372;2024-03-22T16:55:05;3.00;;;1.60;;
23336;SDS011;11840;45.414;12.372;2024-03-22T16:57:33;2.35;;;1.73;;
23336;SDS011;11840;45.414;12.372;2024-03-22T16:59:59;2.70;;;1.75;;
23336;SDS011;11840;45.414;12.372;2024-03-22T17:02:26;2.78;;;1.70;;
23336;SDS011;11840;45.414;12.372;2024-03-22T17:04:52;2.90;;;1.80;;
23336;SDS011;11840;45.414;12.372;2024-03-22T17:07:18;3.53;;;1.95;;
23336;SDS011;11840;45.414;12.372;2024-03-22T17:09:44;2.97;;;1.70;;
23336;SDS011;11840;45.414;12.372;2024-03-22T17:12:10;3.83;;;2.05;;
23336;SDS011;11840;45.414;12.372;2024-03-22T17:14:36;2.90;;;1.90;;
23336;SDS011;11840;45.414;12.372;2024-03-22T17:17:02;3.45;;;1.83;;
23336;SDS011;11840;45.414;12.372;2024-03-22T17:19:29;4.28;;;1.98;;
23336;SDS011;11840;45.414;12.372;2024-03-22T17:21:54;2.70;;;1.70;;
23336;SDS011;11840;45.414;12.372;2024-03-22T17:24:20;4.88;;;1.95;;
23336;SDS011;11840;45.414;12.372;2024-03-22T17:26:46;3.72;;;2.05;;
23336;SDS011;11840;45.414;12.372;2024-03-22T17:29:13;3.80;;;2.00;;
23336;SDS011;11840;45.414;12.372;2024-03-22T17:31:39;2.53;;;1.90;;
23336;SDS011;11840;45.414;12.372;2024-03-22T17:34:05;2.90;;;1.80;;
23336;SDS011;11840;45.414;12.372;2024-03-22T17:36:31;2.88;;;1.95;;
23336;SDS011;11840;45.414;12.372;2024-03-22T17:38:57;2.28;;;1.60;;
23336;SDS011;11840;45.414;12.372;2024-03-22T17:41:23;5.47;;;1.70;;
23336;SDS011;11840;45.414;12.372;2024-03-22T17:43:49;3.83;;;2.10;;
23336;SDS011;11840;45.414;12.372;2024-03-22T17:46:20;2.85;;;1.80;;
23336;SDS011;11840;45.414;12.372;2024-03-22T17:48:46;4.05;;;2.00;;
23336;SDS011;11840;45.414;12.372;2024-03-22T17:51:13;2.88;;;1.90;;
23336;SDS011;11840;45.414;12.372;2024-03-22T17:53:39;3.70;;;2.15;;
23336;SDS011;11840;45.414;12.372;2024-03-22T17:56:04;4.47;;;2.50;;
23336;SDS011;11840;45.414;12.372;2024-03-22T17:58:32;4.63;;;2.10;;
23336;SDS011;11840;45.414;12.372;2024-03-22T18:00:58;3.80;;;2.40;;
23336;SDS011;11840;45.414;12.372;2024-03-22T18:03:24;4.57;;;2.50;;
23336;SDS011;11840;45.414;12.372;2024-03-22T18:05:50;3.55;;;2.30;;
23336;SDS011;11840;45.414;12.372;2024-03-22T18:08:18;4.30;;;2.72;;
23336;SDS011;11840;45.414;12.372;2024-03-22T18:10:44;4.88;;;2.72;;
23336;SDS011;11840;45.414;12.372;2024-03-22T18:13:10;4.93;;;2.63;;
23336;SDS011;11840;45.414;12.372;2024-03-22T18:15:38;4.03;;;2.47;;
23336;SDS011;11840;45.414;12.372;2024-03-22T18:18:05;5.88;;;3.15;;
23336;SDS011;11840;45.414;12.372;2024-03-22T18:20:31;4.97;;;3.20;;
23336;SDS011;11840;45.414;12.372;2024-03-22T18:22:57;5.55;;;3.13;;
23336;SDS011;11840;45.414;12.372;2024-03-22T18:25:23;7.60;;;4.05;;
23336;SDS011;11840;45.414;12.372;2024-03-22T18:27:49;5.28;;;3.17;;
23336;SDS011;11840;45.414;12.372;2024-03-22T18:30:16;4.43;;;2.70;;
23336;SDS011;11840;45.414;12.372;2024-03-22T18:32:42;4.60;;;2.83;;
23336;SDS011;11840;45.414;12.372;2024-03-22T18:35:07;4.65;;;3.20;;
23336;SDS011;11840;45.414;12.372;2024-03-22T18:37:34;9.32;;;4.88;;
23336;SDS011;11840;45.414;12.372;2024-03-22T18:39:59;5.25;;;3.25;;
23336;SDS011;11840;45.414;12.372;2024-03-22T18:42:25;5.53;;;3.50;;
23336;SDS011;11840;45.414;12.372;2024-03-22T18:44:51;4.03;;;2.90;;
23336;SDS011;11840;45.414;12.372;2024-03-22T18:47:17;4.45;;;3.13;;
23336;SDS011;11840;45.414;12.372;2024-03-22T18:49:43;4.40;;;2.90;;
23336;SDS011;11840;45.414;12.372;2024-03-22T18:52:09;4.22;;;3.28;;
23336;SDS011;11840;45.414;12.372;2024-03-22T18:54:35;4.47;;;3.15;;
23336;SDS011;11840;45.414;12.372;2024-03-22T18:57:01;4.28;;;3.38;;
23336;SDS011;11840;45.414;12.372;2024-03-22T18:59:27;4.90;;;3.50;;
23336;SDS011;11840;45.414;12.372;2024-03-22T19:01:54;8.20;;;5.32;;
23336;SDS011;11840;45.414;12.372;2024-03-22T19:04:20;6.10;;;3.88;;
23336;SDS011;11840;45.414;12.372;2024-03-22T19:06:47;6.93;;;3.38;;
23336;SDS011;11840;45.414;12.372;2024-03-22T19:09:15;6.45;;;4.50;;
23336;SDS011;11840;45.414;12.372;2024-03-22T19:11:41;4.85;;;3.65;;
23336;SDS011;11840;45.414;12.372;2024-03-22T19:14:07;5.47;;;4.00;;
23336;SDS011;11840;45.414;12.372;2024-03-22T19:16:34;4.93;;;3.60;;
23336;SDS011;11840;45.414;12.372;2024-03-22T19:19:00;6.53;;;4.30;;
23336;SDS011;11840;45.414;12.372;2024-03-22T19:21:26;5.40;;;3.88;;
23336;SDS011;11840;45.414;12.372;2024-03-22T19:23:52;7.00;;;4.28;;
23336;SDS011;11840;45.414;12.372;2024-03-22T19:26:18;5.72;;;4.35;;
23336;SDS011;11840;45.414;12.372;2024-03-22T19:28:45;9.60;;;4.97;;
23336;SDS011;11840;45.414;12.372;2024-03-22T19:31:11;5.20;;;4.00;;
23336;SDS011;11840;45.414;12.372;2024-03-22T19:33:37;6.93;;;4.47;;
23336;SDS011;11840;45.414;12.372;2024-03-22T19:36:03;21.58;;;12.98;;
23336;SDS011;11840;45.414;12.372;2024-03-22T19:38:29;5.78;;;4.70;;
23336;SDS011;11840;45.414;12.372;2024-03-22T19:40:55;6.53;;;4.65;;
23336;SDS011;11840;45.414;12.372;2024-03-22T19:43:21;7.13;;;4.75;;